Lake George, Minnesota
Current Conditions -  °F | °C
As of 12:33 AM on Wednesday 28 Jan 2015 (Local Time) from KBJI Reporting Station
Overcast Overcast  
Wind Chill: 20°   Ceiling: 1200
Heat Index: 30°   Visibility: 10mi
Dew Point: 26°   Wind: 12mph
Humidity: 86%   Direction: 160°SSE
Pressure: 29.96"   Gusts: NA
Location:  47.2°N, 94.99°W
Report Text: KBJI 280633Z AUTO 16010KT 10SM OVC012 M01/M03 A2996 RMK AO2 T10121032
Loading
Personal Weather Stations






























Interactive Weather Map New forecast layout! Learn more

10-Day Weather Forecast

Advertisements
Track Severe Weather on mobile